sensor_id;sensor_type;location;lat;lon;timestamp;P1;durP1;ratioP1;P2;durP2;ratioP2
52964;SDS011;42923;53.220;6.528;2024-01-11T00:02:23;34.95;;;21.15;;
52964;SDS011;42923;53.220;6.528;2024-01-11T00:04:49;33.08;;;20.50;;
52964;SDS011;42923;53.220;6.528;2024-01-11T00:07:15;37.25;;;21.63;;
52964;SDS011;42923;53.220;6.528;2024-01-11T00:09:41;37.72;;;21.95;;
52964;SDS011;42923;53.220;6.528;2024-01-11T00:12:08;37.97;;;21.73;;
52964;SDS011;42923;53.220;6.528;2024-01-11T00:14:34;35.47;;;21.48;;
52964;SDS011;42923;53.220;6.528;2024-01-11T00:17:00;36.90;;;22.60;;
52964;SDS011;42923;53.220;6.528;2024-01-11T00:19:26;38.83;;;22.85;;
52964;SDS011;42923;53.220;6.528;2024-01-11T00:21:52;33.88;;;20.15;;
52964;SDS011;42923;53.220;6.528;2024-01-11T00:24:17;34.50;;;21.75;;
52964;SDS011;42923;53.220;6.528;2024-01-11T00:26:43;40.05;;;22.52;;
52964;SDS011;42923;53.220;6.528;2024-01-11T00:29:09;41.03;;;22.60;;
52964;SDS011;42923;53.220;6.528;2024-01-11T00:31:34;33.90;;;21.00;;
52964;SDS011;42923;53.220;6.528;2024-01-11T00:34:00;37.58;;;21.85;;
52964;SDS011;42923;53.220;6.528;2024-01-11T00:36:26;40.53;;;22.27;;
52964;SDS011;42923;53.220;6.528;2024-01-11T00:38:53;38.70;;;22.23;;
52964;SDS011;42923;53.220;6.528;2024-01-11T00:41:19;39.83;;;23.25;;
52964;SDS011;42923;53.220;6.528;2024-01-11T00:43:45;38.00;;;21.98;;
52964;SDS011;42923;53.220;6.528;2024-01-11T00:46:11;43.28;;;24.08;;
52964;SDS011;42923;53.220;6.528;2024-01-11T00:48:36;39.03;;;22.52;;
52964;SDS011;42923;53.220;6.528;2024-01-11T00:51:05;45.28;;;24.02;;
52964;SDS011;42923;53.220;6.528;2024-01-11T00:53:31;43.28;;;24.70;;
52964;SDS011;42923;53.220;6.528;2024-01-11T00:55:58;42.92;;;24.85;;
52964;SDS011;42923;53.220;6.528;2024-01-11T00:58:24;45.47;;;25.17;;
52964;SDS011;42923;53.220;6.528;2024-01-11T01:00:50;42.28;;;23.92;;
52964;SDS011;42923;53.220;6.528;2024-01-11T01:03:18;45.40;;;25.05;;
52964;SDS011;42923;53.220;6.528;2024-01-11T01:05:44;46.45;;;24.80;;
52964;SDS011;42923;53.220;6.528;2024-01-11T01:08:11;45.25;;;25.33;;
52964;SDS011;42923;53.220;6.528;2024-01-11T01:10:37;47.20;;;25.08;;
52964;SDS011;42923;53.220;6.528;2024-01-11T01:13:03;43.92;;;25.08;;
52964;SDS011;42923;53.220;6.528;2024-01-11T01:15:28;41.80;;;23.50;;
52964;SDS011;42923;53.220;6.528;2024-01-11T01:17:54;44.70;;;24.02;;
52964;SDS011;42923;53.220;6.528;2024-01-11T01:20:20;42.35;;;23.30;;
52964;SDS011;42923;53.220;6.528;2024-01-11T01:22:45;50.30;;;25.23;;
52964;SDS011;42923;53.220;6.528;2024-01-11T01:25:11;52.15;;;25.67;;
52964;SDS011;42923;53.220;6.528;2024-01-11T01:27:37;45.95;;;24.45;;
52964;SDS011;42923;53.220;6.528;2024-01-11T01:30:03;44.08;;;25.40;;
52964;SDS011;42923;53.220;6.528;2024-01-11T01:32:29;46.10;;;25.33;;
52964;SDS011;42923;53.220;6.528;2024-01-11T01:34:55;46.70;;;24.40;;
52964;SDS011;42923;53.220;6.528;2024-01-11T01:37:21;47.38;;;25.55;;
52964;SDS011;42923;53.220;6.528;2024-01-11T01:39:47;47.25;;;24.98;;
52964;SDS011;42923;53.220;6.528;2024-01-11T01:42:12;50.33;;;26.25;;
52964;SDS011;42923;53.220;6.528;2024-01-11T01:44:38;53.35;;;26.30;;
52964;SDS011;42923;53.220;6.528;2024-01-11T01:47:06;47.88;;;24.88;;
52964;SDS011;42923;53.220;6.528;2024-01-11T01:49:34;50.78;;;25.75;;
52964;SDS011;42923;53.220;6.528;2024-01-11T01:52:01;52.13;;;26.50;;
52964;SDS011;42923;53.220;6.528;2024-01-11T01:54:28;49.00;;;26.20;;
52964;SDS011;42923;53.220;6.528;2024-01-11T01:56:55;48.17;;;25.70;;
52964;SDS011;42923;53.220;6.528;2024-01-11T01:59:21;52.13;;;24.42;;
52964;SDS011;42923;53.220;6.528;2024-01-11T02:01:49;50.95;;;26.90;;
52964;SDS011;42923;53.220;6.528;2024-01-11T02:04:15;49.42;;;24.98;;
52964;SDS011;42923;53.220;6.528;2024-01-11T02:06:41;49.42;;;25.45;;
52964;SDS011;42923;53.220;6.528;2024-01-11T02:09:11;47.80;;;25.20;;
52964;SDS011;42923;53.220;6.528;2024-01-11T02:11:38;47.13;;;25.02;;
52964;SDS011;42923;53.220;6.528;2024-01-11T02:14:06;47.97;;;26.13;;
52964;SDS011;42923;53.220;6.528;2024-01-11T02:16:32;49.25;;;24.92;;
52964;SDS011;42923;53.220;6.528;2024-01-11T02:18:58;48.85;;;24.48;;
52964;SDS011;42923;53.220;6.528;2024-01-11T02:21:24;52.70;;;25.58;;
52964;SDS011;42923;53.220;6.528;2024-01-11T02:24:03;51.85;;;26.33;;
52964;SDS011;42923;53.220;6.528;2024-01-11T02:26:29;53.78;;;26.70;;
52964;SDS011;42923;53.220;6.528;2024-01-11T02:28:55;45.10;;;25.25;;
52964;SDS011;42923;53.220;6.528;2024-01-11T02:31:21;50.72;;;24.60;;
52964;SDS011;42923;53.220;6.528;2024-01-11T02:33:47;50.22;;;26.02;;
52964;SDS011;42923;53.220;6.528;2024-01-11T02:36:14;47.63;;;24.50;;
52964;SDS011;42923;53.220;6.528;2024-01-11T02:38:40;53.20;;;25.25;;
52964;SDS011;42923;53.220;6.528;2024-01-11T02:41:07;49.63;;;26.25;;
52964;SDS011;42923;53.220;6.528;2024-01-11T02:43:34;54.97;;;26.80;;
52964;SDS011;42923;53.220;6.528;2024-01-11T02:46:02;44.63;;;23.40;;
52964;SDS011;42923;53.220;6.528;2024-01-11T02:48:28;48.40;;;24.73;;
52964;SDS011;42923;53.220;6.528;2024-01-11T02:50:55;47.42;;;25.40;;
52964;SDS011;42923;53.220;6.528;2024-01-11T02:53:21;47.22;;;25.27;;
52964;SDS011;42923;53.220;6.528;2024-01-11T02:55:48;53.33;;;27.27;;
52964;SDS011;42923;53.220;6.528;2024-01-11T02:58:17;50.70;;;26.05;;
52964;SDS011;42923;53.220;6.528;2024-01-11T03:00:43;51.13;;;26.55;;
52964;SDS011;42923;53.220;6.528;2024-01-11T03:03:08;56.25;;;26.92;;
52964;SDS011;42923;53.220;6.528;2024-01-11T03:05:34;47.42;;;24.60;;
52964;SDS011;42923;53.220;6.528;2024-01-11T03:07:59;49.38;;;25.40;;
52964;SDS011;42923;53.220;6.528;2024-01-11T03:10:25;49.35;;;25.08;;
52964;SDS011;42923;53.220;6.528;2024-01-11T03:12:51;44.55;;;23.90;;
52964;SDS011;42923;53.220;6.528;2024-01-11T03:15:16;50.15;;;25.10;;
52964;SDS011;42923;53.220;6.528;2024-01-11T03:17:42;53.58;;;26.63;;
52964;SDS011;42923;53.220;6.528;2024-01-11T03:20:08;51.47;;;27.35;;
52964;SDS011;42923;53.220;6.528;2024-01-11T03:22:34;53.50;;;24.75;;
52964;SDS011;42923;53.220;6.528;2024-01-11T03:25:00;53.72;;;25.80;;
52964;SDS011;42923;53.220;6.528;2024-01-11T03:27:25;51.97;;;26.92;;
52964;SDS011;42923;53.220;6.528;2024-01-11T03:29:51;59.58;;;26.98;;
52964;SDS011;42923;53.220;6.528;2024-01-11T03:32:17;57.22;;;26.35;;
52964;SDS011;42923;53.220;6.528;2024-01-11T03:34:42;50.83;;;27.25;;
52964;SDS011;42923;53.220;6.528;2024-01-11T03:37:08;51.20;;;27.60;;
52964;SDS011;42923;53.220;6.528;2024-01-11T03:39:34;51.38;;;27.38;;
52964;SDS011;42923;53.220;6.528;2024-01-11T03:42:00;54.35;;;26.35;;
52964;SDS011;42923;53.220;6.528;2024-01-11T03:44:26;53.75;;;26.73;;
52964;SDS011;42923;53.220;6.528;2024-01-11T03:46:52;54.47;;;27.10;;
52964;SDS011;42923;53.220;6.528;2024-01-11T03:49:17;55.42;;;26.00;;
52964;SDS011;42923;53.220;6.528;2024-01-11T03:51:43;52.60;;;27.40;;
52964;SDS011;42923;53.220;6.528;2024-01-11T03:54:09;52.42;;;25.85;;
52964;SDS011;42923;53.220;6.528;2024-01-11T03:56:38;54.30;;;26.27;;
52964;SDS011;42923;53.220;6.528;2024-01-11T03:59:04;50.88;;;25.65;;
52964;SDS011;42923;53.220;6.528;2024-01-11T04:01:33;55.63;;;26.25;;
52964;SDS011;42923;53.220;6.528;2024-01-11T04:04:05;56.45;;;26.40;;
52964;SDS011;42923;53.220;6.528;2024-01-11T04:06:30;54.80;;;24.92;;
52964;SDS011;42923;53.220;6.528;2024-01-11T04:08:56;52.33;;;26.33;;
52964;SDS011;42923;53.220;6.528;2024-01-11T04:11:22;52.30;;;26.63;;
52964;SDS011;42923;53.220;6.528;2024-01-11T04:13:48;47.63;;;25.27;;
52964;SDS011;42923;53.220;6.528;2024-01-11T04:16:14;52.78;;;26.23;;
52964;SDS011;42923;53.220;6.528;2024-01-11T04:18:39;53.53;;;26.45;;
52964;SDS011;42923;53.220;6.528;2024-01-11T04:21:05;58.13;;;27.23;;
52964;SDS011;42923;53.220;6.528;2024-01-11T04:23:31;53.13;;;25.15;;
52964;SDS011;42923;53.220;6.528;2024-01-11T04:25:56;52.60;;;26.38;;
52964;SDS011;42923;53.220;6.528;2024-01-11T04:28:22;51.17;;;27.75;;
52964;SDS011;42923;53.220;6.528;2024-01-11T04:30:48;58.00;;;28.10;;
52964;SDS011;42923;53.220;6.528;2024-01-11T04:33:14;61.75;;;27.65;;
52964;SDS011;42923;53.220;6.528;2024-01-11T04:35:40;49.17;;;26.58;;
52964;SDS011;42923;53.220;6.528;2024-01-11T04:38:05;61.13;;;28.90;;
52964;SDS011;42923;53.220;6.528;2024-01-11T04:40:31;58.60;;;27.90;;
52964;SDS011;42923;53.220;6.528;2024-01-11T04:42:57;55.05;;;26.58;;
52964;SDS011;42923;53.220;6.528;2024-01-11T04:45:22;53.83;;;26.20;;
52964;SDS011;42923;53.220;6.528;2024-01-11T04:47:50;55.53;;;28.73;;
52964;SDS011;42923;53.220;6.528;2024-01-11T04:50:16;53.38;;;25.08;;
52964;SDS011;42923;53.220;6.528;2024-01-11T04:52:42;52.72;;;25.27;;
52964;SDS011;42923;53.220;6.528;2024-01-11T04:55:08;47.17;;;24.73;;
52964;SDS011;42923;53.220;6.528;2024-01-11T04:57:34;46.83;;;25.20;;
52964;SDS011;42923;53.220;6.528;2024-01-11T04:59:59;48.15;;;26.15;;
52964;SDS011;42923;53.220;6.528;2024-01-11T05:02:25;54.45;;;28.23;;
52964;SDS011;42923;53.220;6.528;2024-01-11T05:04:51;53.78;;;27.00;;
52964;SDS011;42923;53.220;6.528;2024-01-11T05:07:16;51.47;;;25.95;;
52964;SDS011;42923;53.220;6.528;2024-01-11T05:09:42;53.20;;;26.60;;
52964;SDS011;42923;53.220;6.528;2024-01-11T05:12:08;51.45;;;27.20;;
52964;SDS011;42923;53.220;6.528;2024-01-11T05:14:33;49.40;;;28.27;;
52964;SDS011;42923;53.220;6.528;2024-01-11T05:16:59;46.17;;;25.45;;
52964;SDS011;42923;53.220;6.528;2024-01-11T05:19:25;51.97;;;26.00;;
52964;SDS011;42923;53.220;6.528;2024-01-11T05:21:51;50.35;;;25.83;;
52964;SDS011;42923;53.220;6.528;2024-01-11T05:24:17;48.85;;;26.63;;
52964;SDS011;42923;53.220;6.528;2024-01-11T05:26:42;48.15;;;27.15;;
52964;SDS011;42923;53.220;6.528;2024-01-11T05:29:08;47.92;;;25.05;;
52964;SDS011;42923;53.220;6.528;2024-01-11T05:31:34;48.33;;;27.00;;
52964;SDS011;42923;53.220;6.528;2024-01-11T05:34:00;48.05;;;26.13;;
52964;SDS011;42923;53.220;6.528;2024-01-11T05:36:25;48.33;;;26.23;;
52964;SDS011;42923;53.220;6.528;2024-01-11T05:38:51;49.80;;;25.92;;
52964;SDS011;42923;53.220;6.528;2024-01-11T05:41:17;50.33;;;27.25;;
52964;SDS011;42923;53.220;6.528;2024-01-11T05:43:42;51.20;;;26.42;;
52964;SDS011;42923;53.220;6.528;2024-01-11T05:46:09;48.75;;;26.23;;
52964;SDS011;42923;53.220;6.528;2024-01-11T05:48:35;47.13;;;25.60;;
52964;SDS011;42923;53.220;6.528;2024-01-11T05:51:01;46.90;;;26.20;;
52964;SDS011;42923;53.220;6.528;2024-01-11T05:53:26;50.58;;;27.25;;
52964;SDS011;42923;53.220;6.528;2024-01-11T05:55:52;49.67;;;26.92;;
52964;SDS011;42923;53.220;6.528;2024-01-11T05:58:18;46.10;;;24.95;;
52964;SDS011;42923;53.220;6.528;2024-01-11T06:00:45;46.13;;;25.48;;
52964;SDS011;42923;53.220;6.528;2024-01-11T06:03:11;44.33;;;23.50;;
52964;SDS011;42923;53.220;6.528;2024-01-11T06:05:37;50.85;;;26.67;;
52964;SDS011;42923;53.220;6.528;2024-01-11T06:08:03;47.70;;;26.05;;
52964;SDS011;42923;53.220;6.528;2024-01-11T06:10:29;49.75;;;25.88;;
52964;SDS011;42923;53.220;6.528;2024-01-11T06:12:56;49.53;;;27.02;;
52964;SDS011;42923;53.220;6.528;2024-01-11T06:15:21;47.00;;;25.90;;
52964;SDS011;42923;53.220;6.528;2024-01-11T06:17:47;49.60;;;26.58;;
52964;SDS011;42923;53.220;6.528;2024-01-11T06:20:13;47.25;;;25.25;;
52964;SDS011;42923;53.220;6.528;2024-01-11T06:22:39;49.55;;;24.65;;
52964;SDS011;42923;53.220;6.528;2024-01-11T06:25:05;46.65;;;25.75;;
52964;SDS011;42923;53.220;6.528;2024-01-11T06:27:30;49.83;;;26.45;;
52964;SDS011;42923;53.220;6.528;2024-01-11T06:29:56;51.40;;;25.85;;
52964;SDS011;42923;53.220;6.528;2024-01-11T06:32:22;50.53;;;26.73;;
52964;SDS011;42923;53.220;6.528;2024-01-11T06:34:48;52.22;;;25.77;;
52964;SDS011;42923;53.220;6.528;2024-01-11T06:37:13;43.72;;;25.58;;
52964;SDS011;42923;53.220;6.528;2024-01-11T06:39:39;45.75;;;25.10;;
52964;SDS011;42923;53.220;6.528;2024-01-11T06:42:04;45.47;;;26.15;;
52964;SDS011;42923;53.220;6.528;2024-01-11T06:44:30;46.92;;;24.75;;
52964;SDS011;42923;53.220;6.528;2024-01-11T06:46:56;43.88;;;25.38;;
52964;SDS011;42923;53.220;6.528;2024-01-11T06:49:22;46.47;;;27.38;;
52964;SDS011;42923;53.220;6.528;2024-01-11T06:51:47;46.30;;;26.60;;
52964;SDS011;42923;53.220;6.528;2024-01-11T06:54:13;47.45;;;27.00;;
52964;SDS011;42923;53.220;6.528;2024-01-11T06:56:39;44.85;;;26.13;;
52964;SDS011;42923;53.220;6.528;2024-01-11T06:59:05;48.58;;;26.45;;
52964;SDS011;42923;53.220;6.528;2024-01-11T07:01:32;44.88;;;25.73;;
52964;SDS011;42923;53.220;6.528;2024-01-11T07:03:58;52.75;;;27.92;;
52964;SDS011;42923;53.220;6.528;2024-01-11T07:06:24;48.97;;;26.58;;
52964;SDS011;42923;53.220;6.528;2024-01-11T07:08:49;48.10;;;26.13;;
52964;SDS011;42923;53.220;6.528;2024-01-11T07:11:15;49.25;;;27.05;;
52964;SDS011;42923;53.220;6.528;2024-01-11T07:13:41;48.03;;;28.50;;
52964;SDS011;42923;53.220;6.528;2024-01-11T07:16:07;41.83;;;24.73;;
52964;SDS011;42923;53.220;6.528;2024-01-11T07:18:34;48.13;;;25.23;;
52964;SDS011;42923;53.220;6.528;2024-01-11T07:20:59;48.78;;;28.35;;
52964;SDS011;42923;53.220;6.528;2024-01-11T07:23:26;46.28;;;26.33;;
52964;SDS011;42923;53.220;6.528;2024-01-11T07:25:52;45.65;;;25.38;;
52964;SDS011;42923;53.220;6.528;2024-01-11T07:28:18;48.05;;;25.75;;
52964;SDS011;42923;53.220;6.528;2024-01-11T07:30:44;48.22;;;26.35;;
52964;SDS011;42923;53.220;6.528;2024-01-11T07:33:11;49.97;;;26.55;;
52964;SDS011;42923;53.220;6.528;2024-01-11T07:35:37;52.30;;;25.50;;
52964;SDS011;42923;53.220;6.528;2024-01-11T07:38:03;44.80;;;25.23;;
52964;SDS011;42923;53.220;6.528;2024-01-11T07:40:29;49.17;;;26.70;;
52964;SDS011;42923;53.220;6.528;2024-01-11T07:42:55;53.40;;;27.10;;
52964;SDS011;42923;53.220;6.528;2024-01-11T07:45:21;49.28;;;26.83;;
52964;SDS011;42923;53.220;6.528;2024-01-11T07:47:46;48.78;;;26.92;;
52964;SDS011;42923;53.220;6.528;2024-01-11T07:50:12;49.17;;;28.35;;
52964;SDS011;42923;53.220;6.528;2024-01-11T07:52:38;52.80;;;26.23;;
52964;SDS011;42923;53.220;6.528;2024-01-11T07:55:08;48.00;;;27.40;;
52964;SDS011;42923;53.220;6.528;2024-01-11T07:57:39;47.20;;;25.27;;
52964;SDS011;42923;53.220;6.528;2024-01-11T08:00:05;46.42;;;26.15;;
52964;SDS011;42923;53.220;6.528;2024-01-11T08:02:37;45.35;;;25.35;;
52964;SDS011;42923;53.220;6.528;2024-01-11T08:05:04;42.92;;;24.70;;
52964;SDS011;42923;53.220;6.528;2024-01-11T08:07:30;48.92;;;25.60;;
52964;SDS011;42923;53.220;6.528;2024-01-11T08:09:56;44.50;;;27.08;;
52964;SDS011;42923;53.220;6.528;2024-01-11T08:12:22;48.08;;;25.88;;
52964;SDS011;42923;53.220;6.528;2024-01-11T08:14:47;42.85;;;24.15;;
52964;SDS011;42923;53.220;6.528;2024-01-11T08:17:14;40.92;;;23.08;;
52964;SDS011;42923;53.220;6.528;2024-01-11T08:19:40;42.50;;;25.10;;
52964;SDS011;42923;53.220;6.528;2024-01-11T08:22:07;46.00;;;24.70;;
52964;SDS011;42923;53.220;6.528;2024-01-11T08:24:34;38.22;;;22.17;;
52964;SDS011;42923;53.220;6.528;2024-01-11T08:27:00;49.58;;;24.92;;
52964;SDS011;42923;53.220;6.528;2024-01-11T08:29:26;38.65;;;23.17;;
52964;SDS011;42923;53.220;6.528;2024-01-11T08:31:53;41.28;;;23.77;;
52964;SDS011;42923;53.220;6.528;2024-01-11T08:34:20;43.60;;;23.65;;
52964;SDS011;42923;53.220;6.528;2024-01-11T08:36:46;45.72;;;26.45;;
52964;SDS011;42923;53.220;6.528;2024-01-11T08:39:13;39.67;;;23.80;;
52964;SDS011;42923;53.220;6.528;2024-01-11T08:41:39;42.58;;;21.83;;
52964;SDS011;42923;53.220;6.528;2024-01-11T08:44:05;44.63;;;25.15;;
52964;SDS011;42923;53.220;6.528;2024-01-11T08:46:31;38.60;;;22.83;;
52964;SDS011;42923;53.220;6.528;2024-01-11T08:48:58;36.88;;;21.80;;
52964;SDS011;42923;53.220;6.528;2024-01-11T08:51:25;36.83;;;21.63;;
52964;SDS011;42923;53.220;6.528;2024-01-11T08:53:51;37.50;;;21.05;;
52964;SDS011;42923;53.220;6.528;2024-01-11T08:56:20;41.30;;;23.05;;
52964;SDS011;42923;53.220;6.528;2024-01-11T08:58:46;39.08;;;22.15;;
52964;SDS011;42923;53.220;6.528;2024-01-11T09:01:13;41.80;;;24.05;;
52964;SDS011;42923;53.220;6.528;2024-01-11T09:03:39;34.88;;;22.27;;
52964;SDS011;42923;53.220;6.528;2024-01-11T09:06:05;38.08;;;21.77;;
52964;SDS011;42923;53.220;6.528;2024-01-11T09:08:31;40.35;;;22.63;;
52964;SDS011;42923;53.220;6.528;2024-01-11T09:10:57;32.53;;;20.20;;
52964;SDS011;42923;53.220;6.528;2024-01-11T09:13:27;37.15;;;21.58;;
52964;SDS011;42923;53.220;6.528;2024-01-11T09:15:53;37.42;;;21.08;;
52964;SDS011;42923;53.220;6.528;2024-01-11T09:18:20;36.30;;;21.65;;
52964;SDS011;42923;53.220;6.528;2024-01-11T09:20:46;37.33;;;21.55;;
52964;SDS011;42923;53.220;6.528;2024-01-11T09:23:12;31.17;;;20.95;;
52964;SDS011;42923;53.220;6.528;2024-01-11T09:25:38;34.13;;;21.63;;
52964;SDS011;42923;53.220;6.528;2024-01-11T09:28:04;33.85;;;21.33;;
52964;SDS011;42923;53.220;6.528;2024-01-11T09:30:30;39.38;;;21.38;;
52964;SDS011;42923;53.220;6.528;2024-01-11T09:32:56;34.05;;;21.60;;
52964;SDS011;42923;53.220;6.528;2024-01-11T09:35:22;37.85;;;22.73;;
52964;SDS011;42923;53.220;6.528;2024-01-11T09:37:48;38.30;;;21.27;;
52964;SDS011;42923;53.220;6.528;2024-01-11T09:40:14;37.67;;;22.38;;
52964;SDS011;42923;53.220;6.528;2024-01-11T09:42:41;42.05;;;21.33;;
52964;SDS011;42923;53.220;6.528;2024-01-11T09:45:07;36.97;;;21.25;;
52964;SDS011;42923;53.220;6.528;2024-01-11T09:47:36;35.97;;;21.05;;
52964;SDS011;42923;53.220;6.528;2024-01-11T09:50:05;35.15;;;20.63;;
52964;SDS011;42923;53.220;6.528;2024-01-11T09:52:32;34.78;;;19.38;;
52964;SDS011;42923;53.220;6.528;2024-01-11T09:54:58;35.33;;;21.48;;
52964;SDS011;42923;53.220;6.528;2024-01-11T09:57:26;34.28;;;20.38;;
52964;SDS011;42923;53.220;6.528;2024-01-11T09:59:55;30.75;;;20.00;;
52964;SDS011;42923;53.220;6.528;2024-01-11T10:02:25;31.63;;;19.67;;
52964;SDS011;42923;53.220;6.528;2024-01-11T10:04:54;32.25;;;20.48;;
52964;SDS011;42923;53.220;6.528;2024-01-11T10:07:23;35.25;;;20.60;;
52964;SDS011;42923;53.220;6.528;2024-01-11T10:09:50;30.92;;;20.25;;
52964;SDS011;42923;53.220;6.528;2024-01-11T10:12:20;34.95;;;20.58;;
52964;SDS011;42923;53.220;6.528;2024-01-11T10:14:48;33.40;;;19.77;;
52964;SDS011;42923;53.220;6.528;2024-01-11T10:17:14;32.30;;;19.75;;
52964;SDS011;42923;53.220;6.528;2024-01-11T10:19:40;35.67;;;19.35;;
52964;SDS011;42923;53.220;6.528;2024-01-11T10:22:05;33.88;;;20.15;;
52964;SDS011;42923;53.220;6.528;2024-01-11T10:24:32;40.17;;;21.15;;
52964;SDS011;42923;53.220;6.528;2024-01-11T10:26:59;36.17;;;20.15;;
52964;SDS011;42923;53.220;6.528;2024-01-11T10:29:32;31.25;;;19.52;;
52964;SDS011;42923;53.220;6.528;2024-01-11T10:31:59;29.10;;;18.27;;
52964;SDS011;42923;53.220;6.528;2024-01-11T10:34:24;34.15;;;19.65;;
52964;SDS011;42923;53.220;6.528;2024-01-11T10:36:50;31.13;;;18.98;;
52964;SDS011;42923;53.220;6.528;2024-01-11T10:39:20;31.80;;;18.58;;
52964;SDS011;42923;53.220;6.528;2024-01-11T10:42:04;28.05;;;17.85;;
52964;SDS011;42923;53.220;6.528;2024-01-11T10:44:32;29.50;;;18.77;;
52964;SDS011;42923;53.220;6.528;2024-01-11T10:46:59;28.85;;;17.77;;
52964;SDS011;42923;53.220;6.528;2024-01-11T10:49:31;27.40;;;17.45;;
52964;SDS011;42923;53.220;6.528;2024-01-11T10:51:59;25.88;;;17.02;;
52964;SDS011;42923;53.220;6.528;2024-01-11T10:54:27;31.70;;;19.30;;
52964;SDS011;42923;53.220;6.528;2024-01-11T10:56:56;35.33;;;18.48;;
52964;SDS011;42923;53.220;6.528;2024-01-11T10:59:29;29.23;;;17.67;;
52964;SDS011;42923;53.220;6.528;2024-01-11T11:01:57;35.67;;;19.85;;
52964;SDS011;42923;53.220;6.528;2024-01-11T11:04:29;32.50;;;20.25;;
52964;SDS011;42923;53.220;6.528;2024-01-11T11:06:58;32.35;;;18.13;;
52964;SDS011;42923;53.220;6.528;2024-01-11T11:09:26;32.30;;;18.58;;
52964;SDS011;42923;53.220;6.528;2024-01-11T11:11:53;29.00;;;18.13;;
52964;SDS011;42923;53.220;6.528;2024-01-11T11:14:22;29.05;;;18.15;;
52964;SDS011;42923;53.220;6.528;2024-01-11T11:16:49;28.05;;;17.23;;
52964;SDS011;42923;53.220;6.528;2024-01-11T11:19:17;29.27;;;18.33;;
52964;SDS011;42923;53.220;6.528;2024-01-11T11:21:45;31.02;;;18.95;;
52964;SDS011;42923;53.220;6.528;2024-01-11T11:24:12;27.75;;;17.80;;
52964;SDS011;42923;53.220;6.528;2024-01-11T11:26:38;30.15;;;18.90;;
52964;SDS011;42923;53.220;6.528;2024-01-11T11:29:04;35.17;;;18.52;;
52964;SDS011;42923;53.220;6.528;2024-01-11T11:31:36;28.80;;;16.88;;
52964;SDS011;42923;53.220;6.528;2024-01-11T11:34:06;31.47;;;17.93;;
52964;SDS011;42923;53.220;6.528;2024-01-11T11:36:33;25.98;;;16.92;;
52964;SDS011;42923;53.220;6.528;2024-01-11T11:38:59;28.48;;;17.77;;
52964;SDS011;42923;53.220;6.528;2024-01-11T11:41:27;32.60;;;18.63;;
52964;SDS011;42923;53.220;6.528;2024-01-11T11:43:52;28.33;;;18.27;;
52964;SDS011;42923;53.220;6.528;2024-01-11T11:46:19;28.40;;;17.30;;
52964;SDS011;42923;53.220;6.528;2024-01-11T11:48:48;27.33;;;16.60;;
52964;SDS011;42923;53.220;6.528;2024-01-11T11:51:16;26.02;;;15.60;;
52964;SDS011;42923;53.220;6.528;2024-01-11T11:53:47;25.10;;;16.48;;
52964;SDS011;42923;53.220;6.528;2024-01-11T11:56:16;30.17;;;17.75;;
52964;SDS011;42923;53.220;6.528;2024-01-11T11:58:44;27.17;;;17.45;;
52964;SDS011;42923;53.220;6.528;2024-01-11T12:01:11;34.08;;;20.92;;
52964;SDS011;42923;53.220;6.528;2024-01-11T12:03:38;35.08;;;23.52;;
52964;SDS011;42923;53.220;6.528;2024-01-11T12:06:06;32.13;;;22.42;;
52964;SDS011;42923;53.220;6.528;2024-01-11T12:08:36;31.95;;;20.10;;
52964;SDS011;42923;53.220;6.528;2024-01-11T12:11:03;25.92;;;18.15;;
52964;SDS011;42923;53.220;6.528;2024-01-11T12:13:29;31.45;;;18.67;;
52964;SDS011;42923;53.220;6.528;2024-01-11T12:15:56;31.95;;;18.80;;
52964;SDS011;42923;53.220;6.528;2024-01-11T12:18:22;41.78;;;18.05;;
52964;SDS011;42923;53.220;6.528;2024-01-11T12:20:47;27.40;;;17.42;;
52964;SDS011;42923;53.220;6.528;2024-01-11T12:23:13;28.55;;;17.40;;
52964;SDS011;42923;53.220;6.528;2024-01-11T12:25:43;27.85;;;16.08;;
52964;SDS011;42923;53.220;6.528;2024-01-11T12:28:09;27.95;;;16.73;;
52964;SDS011;42923;53.220;6.528;2024-01-11T12:30:35;26.00;;;16.15;;
52964;SDS011;42923;53.220;6.528;2024-01-11T12:33:01;25.20;;;17.45;;
52964;SDS011;42923;53.220;6.528;2024-01-11T12:35:27;30.85;;;17.90;;
52964;SDS011;42923;53.220;6.528;2024-01-11T12:40:26;31.13;;;18.05;;
52964;SDS011;42923;53.220;6.528;2024-01-11T12:42:53;29.90;;;18.83;;
52964;SDS011;42923;53.220;6.528;2024-01-11T12:45:19;31.50;;;16.55;;
52964;SDS011;42923;53.220;6.528;2024-01-11T12:47:45;23.33;;;16.55;;
52964;SDS011;42923;53.220;6.528;2024-01-11T12:50:11;30.88;;;17.67;;
52964;SDS011;42923;53.220;6.528;2024-01-11T12:52:37;29.80;;;18.15;;
52964;SDS011;42923;53.220;6.528;2024-01-11T12:55:04;27.88;;;17.38;;
52964;SDS011;42923;53.220;6.528;2024-01-11T12:57:32;28.08;;;15.80;;
52964;SDS011;42923;53.220;6.528;2024-01-11T13:00:19;28.17;;;17.08;;
52964;SDS011;42923;53.220;6.528;2024-01-11T13:02:44;27.48;;;17.23;;
52964;SDS011;42923;53.220;6.528;2024-01-11T13:05:11;30.52;;;17.40;;
52964;SDS011;42923;53.220;6.528;2024-01-11T13:07:37;28.05;;;17.90;;
52964;SDS011;42923;53.220;6.528;2024-01-11T13:10:03;28.25;;;17.80;;
52964;SDS011;42923;53.220;6.528;2024-01-11T13:12:30;27.33;;;17.30;;
52964;SDS011;42923;53.220;6.528;2024-01-11T13:14:56;29.35;;;17.45;;
52964;SDS011;42923;53.220;6.528;2024-01-11T13:17:22;28.67;;;17.02;;
52964;SDS011;42923;53.220;6.528;2024-01-11T13:19:47;35.50;;;18.23;;
52964;SDS011;42923;53.220;6.528;2024-01-11T13:22:13;30.48;;;17.48;;
52964;SDS011;42923;53.220;6.528;2024-01-11T13:24:39;29.30;;;15.25;;
52964;SDS011;42923;53.220;6.528;2024-01-11T13:27:05;26.60;;;15.18;;
52964;SDS011;42923;53.220;6.528;2024-01-11T13:29:31;31.33;;;17.40;;
52964;SDS011;42923;53.220;6.528;2024-01-11T13:31:57;34.03;;;17.95;;
52964;SDS011;42923;53.220;6.528;2024-01-11T13:34:22;31.42;;;16.85;;
52964;SDS011;42923;53.220;6.528;2024-01-11T13:36:48;31.90;;;17.23;;
52964;SDS011;42923;53.220;6.528;2024-01-11T13:39:14;31.08;;;16.73;;
52964;SDS011;42923;53.220;6.528;2024-01-11T13:41:43;27.55;;;16.52;;
52964;SDS011;42923;53.220;6.528;2024-01-11T13:44:09;27.85;;;16.17;;
52964;SDS011;42923;53.220;6.528;2024-01-11T13:46:36;28.00;;;17.15;;
52964;SDS011;42923;53.220;6.528;2024-01-11T13:49:02;27.40;;;14.82;;
52964;SDS011;42923;53.220;6.528;2024-01-11T13:51:28;29.25;;;16.17;;
52964;SDS011;42923;53.220;6.528;2024-01-11T13:53:57;28.30;;;15.73;;
52964;SDS011;42923;53.220;6.528;2024-01-11T13:56:24;30.50;;;17.77;;
52964;SDS011;42923;53.220;6.528;2024-01-11T13:58:50;29.42;;;15.77;;
52964;SDS011;42923;53.220;6.528;2024-01-11T14:01:16;30.85;;;16.80;;
52964;SDS011;42923;53.220;6.528;2024-01-11T14:03:41;25.55;;;15.48;;
52964;SDS011;42923;53.220;6.528;2024-01-11T14:06:07;28.65;;;16.00;;
52964;SDS011;42923;53.220;6.528;2024-01-11T14:08:33;30.38;;;16.48;;
52964;SDS011;42923;53.220;6.528;2024-01-11T14:10:58;29.23;;;15.57;;
52964;SDS011;42923;53.220;6.528;2024-01-11T14:13:24;23.92;;;15.07;;
52964;SDS011;42923;53.220;6.528;2024-01-11T14:15:50;27.25;;;14.45;;
52964;SDS011;42923;53.220;6.528;2024-01-11T14:18:16;29.85;;;16.30;;
52964;SDS011;42923;53.220;6.528;2024-01-11T14:20:43;24.15;;;14.93;;